Time;durP1;ratioP1;P1;durP2;ratioP2;P2;SDS_P1;SDS_P2;PMS_P1;PMS_P2;Temp;Humidity;BMP_temperature;BMP_pressure;BME280_temperature;BME280_humidity;BME280_pressure;Samples;Min_cycle;Max_cycle;Signal;HPM_P1;HPM_P2
2021/06/05 00:02:04;;;;;;;8.95;6.55;;;18.80;60.70;;;18.98;43.10;95337.06;5104950;28;20569;-82
2021/06/05 00:04:31;;;;;;;5.97;5.40;;;18.90;60.90;;;19.00;42.86;95339.50;5094069;28;20274;-80
2021/06/05 00:06:58;;;;;;;5.95;5.35;;;19.00;61.00;;;19.04;43.36;95343.28;5072778;28;20207;-82
2021/06/05 00:09:26;;;;;;;7.18;5.28;;;18.90;61.10;;;19.03;43.16;95334.50;5005085;28;20657;-81
2021/06/05 00:11:52;;;;;;;6.55;5.28;;;18.90;61.20;;;19.09;42.83;95334.59;4979853;28;20217;-82
2021/06/05 00:14:31;;;;;;;7.40;5.32;;;19.00;60.90;;;19.11;43.18;95329.88;4825831;29;20234;-81
2021/06/05 00:16:57;;;;;;;5.55;5.05;;;19.00;60.90;;;19.12;43.36;95326.97;4732426;29;20203;-81
2021/06/05 00:19:30;;;;;;;9.40;5.40;;;19.00;61.10;;;19.16;43.22;95320.16;5133549;27;20853;-81
2021/06/05 00:21:57;;;;;;;5.78;5.28;;;19.10;61.20;;;19.19;43.35;95322.34;5083472;28;20211;-81
2021/06/05 00:24:24;;;;;;;5.95;4.90;;;19.00;61.20;;;19.20;43.45;95323.94;5046869;28;20230;-82
2021/06/05 00:27:05;;;;;;;5.20;4.70;;;19.10;61.30;;;19.19;43.40;95316.22;5056837;28;20241;-81
2021/06/05 00:29:42;;;;;;;6.25;5.22;;;19.10;61.30;;;19.19;43.76;95310.91;5045287;28;20235;-82
2021/06/05 00:32:09;;;;;;;6.15;5.15;;;19.10;61.30;;;19.21;43.52;95311.44;5005088;28;20217;-81
2021/06/05 00:34:36;;;;;;;6.20;4.82;;;19.10;61.20;;;19.23;43.61;95312.03;4828065;29;20276;-82
2021/06/05 00:37:28;;;;;;;5.40;4.70;;;19.10;61.40;;;19.22;43.99;95306.97;5149366;27;20536;-81
2021/06/05 00:39:55;;;;;;;6.80;4.97;;;19.10;61.30;;;19.19;43.74;95300.25;5111691;27;20226;-81
2021/06/05 00:42:22;;;;;;;8.27;5.38;;;19.20;61.60;;;19.23;43.69;95288.09;5090737;28;20246;-83
2021/06/05 00:44:57;;;;;;;5.43;4.93;;;19.10;61.60;;;19.19;43.74;95286.97;5079978;28;20235;-82
2021/06/05 00:47:25;;;;;;;7.32;5.00;;;19.20;61.70;;;19.18;43.88;95294.13;5072603;28;20214;-81
2021/06/05 00:49:55;;;;;;;5.80;5.13;;;19.10;61.60;;;19.18;43.78;95296.78;5008755;28;20592;-82
2021/06/05 00:52:45;;;;;;;5.32;4.82;;;19.20;62.20;;;19.18;43.98;95301.31;4780791;29;20311;-81
2021/06/05 00:55:58;;;;;;;5.78;4.82;;;19.10;61.70;;;19.18;44.12;95298.66;5144755;27;20957;-82
2021/06/05 00:58:46;;;;;;;5.70;5.20;;;19.10;62.00;;;19.15;44.18;95293.78;5009621;28;20259;-81
2021/06/05 01:01:22;;;;;;;5.07;4.68;;;19.10;61.80;;;19.17;44.59;95295.16;5037957;28;20253;-82
2021/06/05 01:03:53;;;;;;;5.22;4.72;;;19.20;62.80;;;19.19;44.16;95302.91;4979217;28;20253;-81
2021/06/05 01:06:36;;;;;;;5.72;4.57;;;19.10;62.20;;;19.19;44.70;95297.59;4916599;28;20274;-82
2021/06/05 01:09:58;;;;;;;5.28;4.80;;;19.10;62.60;;;19.19;44.31;95301.06;4831418;29;20756;-82
2021/06/05 01:12:40;;;;;;;5.25;4.75;;;19.20;62.40;;;19.20;45.00;95294.69;4637299;30;20219;-82
2021/06/05 01:16:23;;;;;;;6.10;5.00;;;19.20;62.20;;;19.20;44.32;95292.03;5139774;27;20565;-82
2021/06/05 01:19:37;;;;;;;6.07;5.47;;;19.30;62.70;;;19.17;44.79;95289.84;5077524;28;20217;-82
2021/06/05 01:22:41;;;;;;;6.97;5.07;;;19.20;62.50;;;19.19;44.69;95285.09;5035303;28;20200;-81
2021/06/05 01:26:07;;;;;;;5.65;5.10;;;19.20;62.80;;;19.15;44.52;95283.97;4998003;28;20605;-82
2021/06/05 01:28:58;;;;;;;5.72;5.10;;;19.20;62.00;;;19.14;44.83;95281.53;4904096;29;20770;-82
2021/06/05 01:31:34;;;;;;;5.30;4.80;;;19.20;62.80;;;19.17;44.80;95287.19;4758078;29;20304;-82
2021/06/05 01:36:51;;;;;;;7.18;5.15;;;19.20;63.80;;;19.21;45.16;95284.84;5150587;27;20624;-82
2021/06/05 01:39:33;;;;;;;5.95;5.32;;;19.20;62.80;;;19.21;45.13;95282.19;5069040;28;20312;-82
2021/06/05 01:42:07;;;;;;;5.95;5.45;;;19.20;62.90;;;19.22;45.50;95275.03;5049214;28;20202;-82
2021/06/05 01:44:38;;;;;;;7.85;5.93;;;19.20;62.90;;;19.23;45.42;95274.00;4987203;28;20707;-82
2021/06/05 01:47:06;;;;;;;5.60;5.05;;;19.20;62.80;;;19.23;45.11;95268.69;4944665;28;20206;-82
2021/06/05 01:49:34;;;;;;;5.55;5.05;;;19.20;62.80;;;19.24;45.11;95264.97;4901192;29;20634;-82
2021/06/05 01:52:11;;;;;;;5.10;4.60;;;19.20;62.80;;;19.20;46.04;95254.81;4806723;29;20216;-82
2021/06/05 01:56:07;;;;;;;5.43;4.90;;;19.20;63.10;;;19.19;45.68;95249.75;5147156;27;21166;-82
2021/06/05 01:58:40;;;;;;;6.97;5.45;;;19.20;62.80;;;19.23;45.28;95255.41;5095429;28;20315;-82
2021/06/05 02:01:29;;;;;;;5.93;5.25;;;19.20;62.90;;;19.19;45.71;95250.53;5031958;28;20205;-82
2021/06/05 02:04:01;;;;;;;5.90;4.95;;;19.20;62.90;;;19.20;45.71;95257.47;4955357;28;20250;-81
2021/06/05 02:06:37;;;;;;;5.30;4.80;;;19.20;62.80;;;19.18;45.71;95256.09;4909795;28;20654;-82
2021/06/05 02:09:09;;;;;;;4.85;4.35;;;19.20;62.80;;;19.17;45.59;95247.28;4938654;28;20241;-82
2021/06/05 02:11:43;;;;;;;5.80;5.20;;;19.20;62.90;;;19.14;45.99;95246.97;4842534;29;20720;-83
2021/06/05 02:15:18;;;;;;;6.10;4.78;;;19.10;63.20;;;19.06;45.75;95242.03;5130301;27;20575;-83
2021/06/05 02:17:46;;;;;;;5.50;5.00;;;19.10;63.20;;;19.00;45.88;95239.25;5096193;28;20202;-81
2021/06/05 02:20:24;;;;;;;5.38;4.80;;;19.00;62.70;;;18.95;46.15;95243.69;5076723;28;20664;-82
2021/06/05 02:23:04;;;;;;;5.32;4.82;;;19.10;63.80;;;18.94;46.00;95245.53;5072230;28;20217;-82
2021/06/05 02:25:31;;;;;;;4.95;4.55;;;19.00;63.40;;;18.92;46.16;95250.28;5064939;28;20207;-82
2021/06/05 02:28:02;;;;;;;5.53;5.03;;;19.00;63.20;;;18.91;46.35;95247.81;4977462;28;20266;-84
2021/06/05 02:30:31;;;;;;;5.55;5.05;;;18.90;63.80;;;18.89;46.82;95242.75;4861955;29;20674;-82
2021/06/05 02:35:41;;;;;;;5.65;5.15;;;18.90;65.10;;;18.90;46.78;95243.56;5142760;27;20628;-82
2021/06/05 02:38:24;;;;;;;6.22;5.63;;;18.90;64.00;;;18.90;46.85;95248.88;5081100;28;20265;-82
2021/06/05 02:40:58;;;;;;;6.43;5.68;;;18.90;63.80;;;18.90;47.06;95243.56;5065704;28;20271;-82
2021/06/05 02:43:32;;;;;;;6.20;5.60;;;18.90;63.90;;;18.91;47.01;95246.03;5061971;28;20275;-81
2021/06/05 02:46:25;;;;;;;5.85;5.35;;;18.90;64.40;;;18.87;47.00;95243.00;5018361;28;20220;-81
2021/06/05 02:48:59;;;;;;;6.70;6.10;;;18.90;64.30;;;18.91;47.15;95239.84;4869345;29;20238;-82
2021/06/05 02:51:40;;;;;;;5.85;5.32;;;18.90;63.90;;;18.89;47.01;95234.78;4762886;29;20292;-81
2021/06/05 02:56:33;;;;;;;6.35;5.55;;;18.90;64.20;;;18.94;47.31;95224.28;5150483;27;20335;-82
2021/06/05 02:59:02;;;;;;;6.32;5.72;;;18.90;64.10;;;18.93;47.10;95228.00;5092169;28;20229;-82
2021/06/05 03:01:35;;;;;;;6.20;5.60;;;18.90;64.20;;;18.96;47.13;95230.16;5072250;28;20285;-81
2021/06/05 03:04:03;;;;;;;7.85;6.70;;;18.90;64.20;;;18.97;47.25;95215.00;5038956;28;20229;-82
2021/06/05 03:06:31;;;;;;;8.52;6.13;;;18.90;64.20;;;18.99;47.50;95220.91;4976328;28;20666;-81
2021/06/05 03:09:00;;;;;;;7.47;6.32;;;18.90;64.40;;;19.00;47.47;95211.88;4965113;28;20224;-82
2021/06/05 03:11:28;;;;;;;6.97;6.28;;;18.90;64.30;;;19.01;47.52;95208.19;4918825;28;20303;-82
2021/06/05 03:16:45;;;;;;;7.05;6.43;;;18.90;64.30;;;19.04;47.89;95221.81;5127195;27;20551;-81
2021/06/05 03:19:13;;;;;;;9.07;6.53;;;19.00;64.50;;;19.03;47.47;95230.03;5087690;28;20245;-82
2021/06/05 03:21:42;;;;;;;6.55;5.95;;;19.00;64.70;;;19.02;47.69;95234.53;5052919;28;20233;-82
2021/06/05 03:24:18;;;;;;;6.55;5.70;;;19.00;64.90;;;19.03;47.64;95224.72;5076845;28;20234;-81
2021/06/05 03:26:44;;;;;;;6.95;6.10;;;19.00;64.80;;;19.03;48.25;95225.53;4970696;28;20207;-81
2021/06/05 03:29:13;;;;;;;7.32;6.63;;;19.00;64.80;;;19.04;48.06;95223.66;4867630;29;21047;-81
2021/06/05 03:31:44;;;;;;;7.45;5.95;;;19.00;64.80;;;19.03;47.85;95214.88;4767041;29;20584;-82
2021/06/05 03:34:12;;;;;;;7.55;6.38;;;19.00;65.00;;;19.06;47.68;95218.91;4596823;30;20257;-81
2021/06/05 03:36:51;;;;;;;10.30;6.18;;;19.00;65.10;;;19.05;47.60;95225.28;5127409;27;20315;-80
2021/06/05 03:39:21;;;;;;;7.10;6.40;;;19.00;65.00;;;19.09;47.86;95225.59;5080141;28;20322;-82
2021/06/05 03:41:49;;;;;;;6.53;5.75;;;19.00;65.00;;;19.09;47.89;95221.13;4999967;28;20199;-81
2021/06/05 03:44:18;;;;;;;6.22;5.63;;;19.00;65.10;;;19.07;48.13;95215.22;5038500;28;20635;-82
2021/06/05 03:46:48;;;;;;;6.47;5.88;;;19.00;65.10;;;19.14;48.10;95223.03;4980870;28;20684;-81
2021/06/05 03:49:15;;;;;;;7.20;6.50;;;19.10;65.10;;;19.15;47.84;95217.50;4938373;28;20236;-81
2021/06/05 03:51:42;;;;;;;6.88;5.95;;;19.10;65.10;;;19.18;48.03;95230.31;4881127;29;20308;-82
2021/06/05 03:54:11;;;;;;;7.47;6.80;;;19.10;65.10;;;19.19;48.41;95231.91;4738347;29;20243;-82
2021/06/05 03:56:49;;;;;;;8.40;7.30;;;19.10;65.20;;;19.22;48.37;95238.63;5147908;27;20799;-82
2021/06/05 03:59:15;;;;;;;7.80;7.10;;;19.10;65.10;;;19.22;48.86;95238.63;5098650;28;20217;-83
2021/06/05 04:01:42;;;;;;;7.57;6.88;;;19.10;65.30;;;19.20;49.05;95243.38;5054220;28;20210;-82
2021/06/05 04:04:09;;;;;;;7.90;6.80;;;19.20;65.60;;;19.20;49.29;95238.84;5035404;28;20232;-83
2021/06/05 04:06:36;;;;;;;8.02;6.05;;;19.20;65.60;;;19.24;49.10;95238.38;4978585;28;20217;-82
2021/06/05 04:09:05;;;;;;;7.30;6.20;;;19.20;65.60;;;19.26;49.63;95239.78;4879094;29;20236;-83
2021/06/05 04:11:35;;;;;;;6.80;6.10;;;19.20;65.70;;;19.26;49.88;95246.91;4782443;29;20243;-82
2021/06/05 04:14:03;;;;;;;7.00;6.40;;;19.20;65.70;;;19.27;49.86;95244.00;4653068;30;20298;-83
2021/06/05 04:16:36;;;;;;;7.50;6.80;;;19.20;65.90;;;19.28;49.43;95242.19;5134282;27;20723;-82
2021/06/05 04:19:03;;;;;;;6.78;6.07;;;19.20;66.00;;;19.29;49.07;95233.97;5075924;28;20308;-83
2021/06/05 04:21:30;;;;;;;7.40;5.80;;;19.20;65.90;;;19.37;49.17;95243.38;5085470;28;20245;-83
2021/06/05 04:23:57;;;;;;;8.20;6.15;;;19.20;66.00;;;19.42;49.54;95248.00;5026974;28;20682;-83
2021/06/05 04:26:25;;;;;;;6.75;5.60;;;19.30;66.20;;;19.46;49.04;95252.59;5021748;28;20198;-82
2021/06/05 04:28:52;;;;;;;5.90;5.38;;;19.30;66.30;;;19.51;49.40;95251.91;5000112;28;20286;-81
2021/06/05 04:31:18;;;;;;;5.82;5.20;;;19.30;66.30;;;19.59;49.42;95256.84;4973976;28;20665;-82
2021/06/05 04:36:32;;;;;;;6.75;6.10;;;19.30;66.20;;;19.73;49.39;95259.19;5135077;27;20567;-82
2021/06/05 04:38:59;;;;;;;7.80;5.85;;;19.40;66.30;;;19.78;48.94;95256.59;5087866;28;20227;-82
2021/06/05 04:41:26;;;;;;;6.43;5.82;;;19.50;66.50;;;19.84;48.96;95255.66;5064264;28;20213;-83
2021/06/05 04:43:53;;;;;;;6.85;6.15;;;19.50;66.40;;;19.90;49.34;95252.03;5101946;27;20221;-80
2021/06/05 04:46:19;;;;;;;6.20;5.70;;;19.60;66.50;;;19.97;49.25;95250.00;5108346;27;20216;-80
2021/06/05 04:48:47;;;;;;;7.53;6.10;;;19.70;66.50;;;20.04;49.62;95249.03;5009283;28;20259;-80
2021/06/05 04:51:17;;;;;;;7.18;6.53;;;19.70;66.70;;;20.10;49.58;95245.41;4901394;28;20343;-80
2021/06/05 04:53:44;;;;;;;7.28;6.57;;;19.80;66.90;;;20.12;49.27;95236.13;4737819;29;20318;-80
2021/06/05 04:57:43;;;;;;;6.82;6.13;;;19.80;66.70;;;20.24;49.39;95237.91;5143970;27;20644;-81
2021/06/05 05:00:27;;;;;;;8.20;6.43;;;19.90;66.80;;;20.28;49.58;95239.81;5091096;28;20235;-79
2021/06/05 05:02:55;;;;;;;9.57;8.35;;;20.00;67.20;;;20.34;49.39;95235.38;5046581;28;20626;-80
2021/06/05 05:05:22;;;;;;;8.05;7.10;;;20.00;66.80;;;20.42;49.30;95234.94;5010015;28;20234;-80
2021/06/05 05:07:50;;;;;;;8.23;6.45;;;20.10;66.80;;;20.50;49.35;95228.38;5016845;28;20240;-79
2021/06/05 05:10:26;;;;;;;7.95;7.15;;;20.20;66.60;;;20.60;49.16;95228.53;5020308;28;20304;-80
2021/06/05 05:12:53;;;;;;;7.88;7.18;;;20.20;66.50;;;20.71;49.10;95234.75;4961045;28;20306;-80
2021/06/05 05:15:21;;;;;;;7.68;6.95;;;20.30;66.40;;;20.81;49.05;95223.44;4711544;29;20221;-80
2021/06/05 05:17:59;;;;;;;7.88;7.15;;;20.40;66.50;;;20.91;48.74;95226.25;5146596;27;20395;-81
2021/06/05 05:20:36;;;;;;;8.68;6.55;;;20.50;66.50;;;21.03;48.94;95223.47;5091270;28;20212;-81
2021/06/05 05:23:04;;;;;;;7.53;6.82;;;20.60;66.60;;;21.14;48.39;95218.22;5071471;28;20232;-81
2021/06/05 05:25:32;;;;;;;11.38;7.40;;;20.60;66.30;;;21.25;48.45;95223.41;5029932;28;20563;-80
2021/06/05 05:28:01;;;;;;;73.95;20.38;;;20.70;66.20;;;21.35;48.35;95220.03;4971466;28;20231;-80
2021/06/05 05:30:32;;;;;;;154.40;44.72;;;20.80;66.20;;;21.48;48.48;95220.69;4910230;29;20556;-80
2021/06/05 05:32:59;;;;;;;295.42;89.90;;;20.90;66.10;;;21.59;48.41;95222.41;4839461;29;20242;-81
2021/06/05 05:35:27;;;;;;;150.93;59.13;;;21.00;66.10;;;21.68;47.57;95222.75;4579298;30;20219;-81
2021/06/05 05:39:41;;;;;;;66.57;34.78;;;21.10;66.00;;;21.84;48.00;95226.38;5130397;27;20604;-81
2021/06/05 05:42:08;;;;;;;60.33;32.75;;;21.30;65.90;;;21.95;47.38;95221.88;5107911;28;20205;-81
2021/06/05 05:44:34;;;;;;;55.08;29.13;;;21.40;65.90;;;22.06;47.45;95223.59;5088832;28;20233;-82
2021/06/05 05:47:01;;;;;;;74.25;42.53;;;21.50;65.70;;;22.15;47.36;95216.69;5067807;28;20568;-80
2021/06/05 05:49:29;;;;;;;65.13;39.53;;;21.50;65.70;;;22.24;47.30;95219.69;5001159;28;20264;-81
2021/06/05 05:51:55;;;;;;;62.35;36.38;;;21.70;65.90;;;22.39;47.90;95219.78;4907440;29;20592;-81
2021/06/05 05:54:22;;;;;;;50.83;32.95;;;21.80;65.90;;;22.49;47.53;95219.03;4889859;29;20280;-81
2021/06/05 05:56:49;;;;;;;37.15;24.05;;;21.90;65.80;;;22.60;47.13;95225.25;4722239;29;20228;-80
2021/06/05 05:59:27;;;;;;;26.65;18.25;;;22.00;65.60;;;22.74;46.90;95222.09;5134044;27;20313;-82
2021/06/05 06:01:54;;;;;;;25.88;17.13;;;22.10;65.50;;;22.82;47.36;95222.41;5086616;28;20208;-81
2021/06/05 06:04:20;;;;;;;16.90;12.02;;;22.20;65.40;;;22.95;46.96;95215.75;5087012;28;20231;-81
2021/06/05 06:06:47;;;;;;;13.30;10.00;;;22.30;65.30;;;23.06;46.96;95215.78;5081313;28;20226;-81
2021/06/05 06:09:15;;;;;;;14.70;10.57;;;22.40;65.40;;;23.12;47.18;95207.53;5040307;28;20254;-81
2021/06/05 06:11:46;;;;;;;13.88;9.77;;;22.50;65.40;;;23.26;47.03;95212.41;4932578;28;20677;-82
2021/06/05 06:14:17;;;;;;;14.85;9.48;;;22.60;65.50;;;23.33;46.61;95210.28;4782758;29;20295;-81
2021/06/05 06:16:43;;;;;;;11.50;9.30;;;22.70;65.60;;;23.44;46.93;95217.25;4558250;30;20229;-82
2021/06/05 06:19:21;;;;;;;9.07;8.18;;;22.80;65.70;;;23.52;46.63;95212.44;5135142;27;20329;-81
2021/06/05 06:21:47;;;;;;;8.73;7.18;;;22.90;65.80;;;23.62;46.96;95209.75;5070588;28;20225;-81
2021/06/05 06:24:15;;;;;;;7.65;6.85;;;23.00;65.80;;;23.72;46.98;95214.34;5066712;28;20240;-81
2021/06/05 06:26:42;;;;;;;9.50;8.50;;;23.10;66.90;;;23.81;47.14;95212.72;5051647;28;20216;-81
2021/06/05 06:29:19;;;;;;;9.00;8.07;;;23.20;66.00;;;23.88;46.89;95215.13;5015522;28;20646;-81
2021/06/05 06:31:49;;;;;;;7.72;7.03;;;23.30;66.10;;;24.01;46.78;95224.50;4968581;28;20211;-82
2021/06/05 06:34:16;;;;;;;8.32;7.00;;;23.40;66.20;;;24.12;46.69;95228.78;4824083;29;20243;-81
2021/06/05 06:39:34;;;;;;;7.53;6.50;;;23.50;66.10;;;24.34;46.78;95231.19;5133604;27;20647;-81
2021/06/05 06:42:00;;;;;;;6.68;6.00;;;23.70;66.00;;;24.45;46.41;95232.75;5065890;28;20221;-81
2021/06/05 06:44:27;;;;;;;7.20;6.60;;;23.80;65.80;;;24.55;46.61;95234.59;5060233;28;20286;-82
2021/06/05 06:46:54;;;;;;;6.68;6.07;;;23.90;65.80;;;24.67;46.27;95230.84;5067079;28;20221;-81
2021/06/05 06:49:23;;;;;;;6.72;6.10;;;24.00;65.80;;;24.77;46.23;95236.19;5015285;28;20232;-80
2021/06/05 06:51:50;;;;;;;6.70;5.80;;;24.10;65.60;;;24.90;46.31;95232.09;4890808;29;20215;-81
2021/06/05 06:54:18;;;;;;;6.68;6.03;;;24.20;65.50;;;25.02;46.47;95229.09;4740228;30;20222;-81
2021/06/05 06:56:47;;;;;;;7.32;6.45;;;24.30;65.60;;;25.14;46.65;95221.50;4604174;30;20239;-81
2021/06/05 06:59:25;;;;;;;6.20;5.60;;;24.40;65.70;;;25.24;45.95;95216.09;5134198;27;20331;-81
2021/06/05 07:01:51;;;;;;;7.25;6.38;;;24.50;65.50;;;25.38;46.09;95215.50;5084039;28;20209;-81
2021/06/05 07:04:18;;;;;;;6.25;5.75;;;24.60;65.70;;;25.52;46.04;95213.81;5061852;28;20229;-82
2021/06/05 07:06:44;;;;;;;6.75;5.75;;;24.80;65.70;;;25.67;46.17;95215.56;5025461;28;20218;-81
2021/06/05 07:09:13;;;;;;;6.50;5.88;;;24.90;65.70;;;25.80;45.42;95216.78;5006211;28;20227;-82
2021/06/05 07:11:40;;;;;;;6.20;5.70;;;25.00;64.80;;;25.90;45.38;95213.22;4958039;28;20235;-81
2021/06/05 07:14:07;;;;;;;6.55;5.53;;;25.10;64.90;;;26.02;45.36;95212.84;4923528;28;20234;-81
2021/06/05 07:16:37;;;;;;;10.05;6.03;;;25.30;65.10;;;26.15;45.33;95214.13;4804724;29;21882;-81
2021/06/05 07:20:51;;;;;;;5.70;5.10;;;25.40;64.70;;;26.34;44.59;95211.50;5130214;27;20644;-82
2021/06/05 07:23:21;;;;;;;6.45;5.40;;;25.60;63.70;;;26.40;43.78;95206.88;5079321;28;20229;-81
2021/06/05 07:25:48;;;;;;;6.30;5.63;;;25.70;63.40;;;26.46;43.76;95200.34;5076593;28;20212;-82
2021/06/05 07:28:28;;;;;;;7.57;5.93;;;25.70;63.60;;;26.53;43.65;95203.50;5031647;28;20236;-81
2021/06/05 07:30:58;;;;;;;7.18;5.53;;;25.80;62.70;;;26.51;42.44;95201.13;4946120;28;20220;-81
2021/06/05 07:33:26;;;;;;;6.10;5.40;;;25.90;62.10;;;26.47;42.48;95202.75;4907865;29;20253;-84
2021/06/05 07:35:55;;;;;;;6.45;5.85;;;25.90;62.10;;;26.45;42.49;95202.25;4739258;29;20218;-81
2021/06/05 07:39:05;;;;;;;7.78;4.68;;;26.00;62.10;;;26.44;43.14;95197.97;5137866;27;20656;-82
2021/06/05 07:41:32;;;;;;;5.82;5.32;;;25.90;61.90;;;26.46;42.95;95193.06;5067673;28;20283;-81
2021/06/05 07:43:59;;;;;;;5.65;5.15;;;25.90;62.60;;;26.54;43.13;95191.66;5086399;28;20221;-81
2021/06/05 07:46:27;;;;;;;5.97;5.38;;;26.00;62.60;;;26.59;43.14;95194.28;5081928;28;20199;-82
2021/06/05 07:48:54;;;;;;;7.25;5.85;;;26.00;62.40;;;26.57;42.72;95190.28;5016227;28;20259;-81
2021/06/05 07:51:22;;;;;;;5.90;5.47;;;26.00;61.80;;;26.53;42.30;95193.53;4954649;28;20760;-82
2021/06/05 07:53:49;;;;;;;6.60;6.03;;;26.00;61.70;;;26.45;42.72;95191.50;4913676;29;20243;-81
2021/06/05 07:56:17;;;;;;;7.78;5.90;;;26.10;61.70;;;26.40;41.59;95199.59;4819003;29;20696;-81
2021/06/05 08:00:19;;;;;;;6.63;5.90;;;26.00;61.10;;;26.18;41.72;95195.53;5149480;27;20559;-82
2021/06/05 08:02:46;;;;;;;6.72;5.40;;;26.00;60.90;;;26.17;41.92;95198.50;5086670;28;20202;-81
2021/06/05 08:05:13;;;;;;;6.40;5.30;;;25.90;61.00;;;26.19;41.84;95199.81;5048186;28;20668;-81
2021/06/05 08:07:40;;;;;;;5.60;5.10;;;25.90;60.90;;;26.19;41.74;95189.06;5047955;28;20208;-81
2021/06/05 08:10:10;;;;;;;6.03;5.50;;;25.90;61.00;;;26.28;41.67;95183.88;4940806;28;20214;-81
2021/06/05 08:12:38;;;;;;;6.20;5.30;;;25.90;61.00;;;26.32;41.79;95181.44;4887458;29;20276;-81
2021/06/05 08:15:09;;;;;;;6.07;5.55;;;25.90;61.30;;;26.39;41.82;95178.38;4894410;28;20215;-81
2021/06/05 08:20:52;;;;;;;5.30;4.80;;;25.90;61.10;;;26.59;41.54;95180.84;5145005;27;20569;-81
2021/06/05 08:23:20;;;;;;;6.05;5.50;;;26.00;61.00;;;26.64;40.60;95177.28;5086409;28;20223;-81
2021/06/05 08:25:48;;;;;;;5.90;5.30;;;26.10;60.70;;;26.67;40.88;95182.91;5070452;28;20260;-81
2021/06/05 08:28:18;;;;;;;5.55;5.03;;;26.10;60.30;;;26.67;40.42;95187.47;4965979;28;20225;-81
2021/06/05 08:30:47;;;;;;;5.47;4.97;;;26.10;60.00;;;26.68;40.46;95172.94;4962118;28;20200;-80
2021/06/05 08:33:15;;;;;;;5.53;5.03;;;26.20;60.10;;;26.72;40.64;95170.47;4812778;29;20704;-81
2021/06/05 08:35:42;;;;;;;5.32;4.68;;;26.20;60.30;;;26.82;40.39;95175.75;4713259;30;20227;-81
2021/06/05 08:41:24;;;;;;;5.90;5.15;;;26.30;60.20;;;26.96;39.91;95168.56;5150333;27;20664;-81
2021/06/05 08:44:03;;;;;;;6.18;5.57;;;26.30;59.90;;;27.02;39.96;95177.38;5106691;28;20231;-81
2021/06/05 08:46:45;;;;;;;6.72;6.13;;;26.40;59.70;;;27.04;39.64;95175.19;5057741;28;20217;-81
2021/06/05 08:49:23;;;;;;;5.90;5.30;;;26.50;59.40;;;27.13;40.15;95178.81;5028663;28;20224;-81
2021/06/05 08:52:05;;;;;;;5.43;4.93;;;26.50;60.10;;;27.22;40.72;95170.09;5015905;28;20204;-82
2021/06/05 08:54:47;;;;;;;5.30;4.90;;;26.60;60.10;;;27.35;39.82;95173.97;4920116;29;20245;-81
2021/06/05 08:58:05;;;;;;;5.85;5.22;;;26.60;59.10;;;27.41;39.58;95170.91;4809775;29;20630;-81
2021/06/05 09:00:47;;;;;;;5.20;4.80;;;26.70;59.40;;;27.54;39.58;95160.47;5150483;27;20380;-82
2021/06/05 09:03:21;;;;;;;5.22;4.72;;;26.80;59.50;;;27.63;38.90;95166.81;5086562;28;20225;-82
2021/06/05 09:05:55;;;;;;;5.40;4.90;;;26.90;58.50;;;27.69;38.08;95165.63;5055658;28;20213;-83
2021/06/05 09:08:23;;;;;;;5.80;5.30;;;27.00;58.10;;;27.71;38.31;95160.75;5006708;28;20222;-82
2021/06/05 09:11:07;;;;;;;5.57;4.95;;;27.00;57.90;;;27.73;37.44;95166.63;5047255;28;20211;-81
2021/06/05 09:13:34;;;;;;;5.40;4.90;;;27.10;57.20;;;27.74;36.04;95160.16;4890773;28;20656;-82
2021/06/05 09:16:19;;;;;;;5.40;4.90;;;27.20;55.80;;;27.80;37.42;95163.56;4851489;29;20268;-82
2021/06/05 09:20:07;;;;;;;4.65;4.25;;;27.20;57.50;;;27.91;37.50;95164.97;5123832;27;20579;-81
2021/06/05 09:22:39;;;;;;;4.95;4.50;;;27.20;56.80;;;27.97;36.13;95157.63;5063986;28;20215;-82
2021/06/05 09:25:41;;;;;;;5.20;4.80;;;27.30;55.60;;;27.98;36.41;95161.91;5089957;28;20714;-82
2021/06/05 09:28:13;;;;;;;5.28;4.78;;;27.30;55.90;;;28.04;36.10;95151.81;5054779;28;20217;-81
2021/06/05 09:30:42;;;;;;;4.57;4.18;;;27.40;55.30;;;28.18;36.60;95154.59;4929953;28;20208;-82
2021/06/05 09:33:13;;;;;;;5.07;4.57;;;27.40;56.00;;;28.40;36.94;95151.97;4813861;29;20240;-82
2021/06/05 09:35:45;;;;;;;4.38;4.07;;;27.50;55.90;;;28.66;36.99;95150.69;4579022;30;20696;-82
2021/06/05 09:40:09;;;;;;;4.28;3.97;;;27.70;56.00;;;28.98;36.24;95151.66;5132912;27;20928;-83
2021/06/05 09:42:42;;;;;;;5.00;3.92;;;28.00;56.70;;;29.07;35.78;95145.22;5062318;28;20202;-83
2021/06/05 09:45:41;;;;;;;4.10;3.80;;;28.20;55.40;;;29.09;35.80;95142.25;5064784;28;20207;-82
2021/06/05 09:48:36;;;;;;;5.75;3.83;;;28.30;55.70;;;29.13;35.98;95145.13;5031944;28;20233;-81
2021/06/05 09:51:35;;;;;;;4.10;3.78;;;28.40;55.50;;;29.16;35.60;95142.63;4931688;28;20306;-82
2021/06/05 09:54:47;;;;;;;4.03;3.72;;;28.40;54.70;;;29.18;35.96;95134.19;4731190;29;20256;-82
2021/06/05 10:00:27;;;;;;;4.75;4.10;;;28.50;54.70;;;29.23;35.55;95134.06;5116427;27;20590;-82
2021/06/05 10:03:26;;;;;;;4.45;4.07;;;28.60;54.50;;;29.27;35.88;95131.56;5078182;28;20649;-82
2021/06/05 10:05:54;;;;;;;5.07;4.28;;;28.60;55.10;;;29.31;35.11;95133.38;5031254;28;20259;-83
2021/06/05 10:08:39;;;;;;;5.72;4.38;;;28.60;53.50;;;29.37;35.23;95142.97;5034506;28;20244;-82
2021/06/05 10:11:25;;;;;;;4.75;4.35;;;28.70;54.30;;;29.41;34.22;95139.63;4921699;28;20734;-83
2021/06/05 10:14:13;;;;;;;4.72;4.25;;;28.70;53.00;;;29.31;34.92;95130.69;4914023;28;20250;-83
2021/06/05 10:16:47;;;;;;;5.03;4.13;;;28.70;53.50;;;29.30;34.63;95131.00;4728910;29;20591;-82
2021/06/05 10:21:53;;;;;;;3.83;3.53;;;28.70;53.00;;;29.46;34.50;95124.09;5150278;27;20646;-83
2021/06/05 10:24:29;;;;;;;4.22;3.80;;;28.70;53.50;;;29.62;34.77;95115.63;5113202;28;20227;-83
2021/06/05 10:27:00;;;;;;;3.85;3.55;;;28.80;53.90;;;29.73;35.31;95119.66;5071966;28;20218;-83
2021/06/05 10:29:44;;;;;;;5.90;4.28;;;28.80;54.10;;;29.85;33.82;95117.19;5062139;28;20225;-82
2021/06/05 10:32:23;;;;;;;11.95;6.80;;;28.90;52.70;;;29.94;34.06;95122.66;4989207;28;20217;-83
2021/06/05 10:35:49;;;;;;;5.20;4.70;;;29.00;53.10;;;29.95;33.67;95115.38;4860523;29;20632;-84
2021/06/05 10:38:43;;;;;;;4.50;4.10;;;29.10;52.70;;;29.98;34.19;95126.34;4661236;30;20970;-81
2021/06/05 10:41:29;;;;;;;4.30;3.90;;;29.20;53.00;;;30.03;33.78;95117.31;5131072;27;20386;-83
2021/06/05 10:43:57;;;;;;;5.18;4.20;;;29.20;52.40;;;30.14;33.91;95115.13;5065354;28;20258;-84
2021/06/05 10:46:30;;;;;;;4.35;3.95;;;29.30;52.30;;;30.25;33.80;95112.94;5044211;28;20652;-82
2021/06/05 10:49:19;;;;;;;4.60;4.20;;;29.40;52.30;;;30.40;33.83;95109.03;5028849;28;20261;-82
2021/06/05 10:51:54;;;;;;;8.32;3.83;;;29.50;52.70;;;30.47;33.38;95104.72;4996298;28;20607;-84
2021/06/05 10:54:28;;;;;;;3.83;3.53;;;29.60;52.00;;;30.59;33.24;95114.16;4902783;28;20242;-83
2021/06/05 10:57:18;;;;;;;4.78;3.72;;;29.70;51.90;;;30.73;33.51;95106.72;4768578;29;20581;-85
2021/06/05 11:02:50;;;;;;;4.38;3.97;;;29.80;52.30;;;30.98;32.25;95088.09;5149486;27;20640;-82
2021/06/05 11:05:17;;;;;;;4.45;3.30;;;30.00;51.20;;;31.12;33.25;95102.31;5062054;28;20750;-82
2021/06/05 11:07:46;;;;;;;3.90;3.60;;;30.10;51.90;;;31.31;32.43;95098.50;5068481;28;20269;-83
2021/06/05 11:10:48;;;;;;;18.65;13.05;;;30.30;51.30;;;31.40;32.48;95085.72;5001083;28;20213;-83
2021/06/05 11:13:37;;;;;;;11.98;9.38;;;30.40;51.40;;;31.41;32.43;95091.97;4893347;29;20238;-83
2021/06/05 11:16:17;;;;;;;5.60;4.75;;;30.50;51.40;;;31.32;32.50;95089.22;4831609;29;20679;-84
2021/06/05 11:18:55;;;;;;;3.90;3.60;;;30.60;50.40;;;31.26;32.37;95083.19;4625843;30;20251;-82
2021/06/05 11:21:39;;;;;;;3.65;3.35;;;30.60;50.30;;;31.17;33.04;95079.69;5148924;27;20549;-83
2021/06/05 11:24:23;;;;;;;3.58;3.28;;;30.60;50.60;;;31.08;33.05;95076.97;5086675;28;20310;-83
2021/06/05 11:26:57;;;;;;;3.55;3.25;;;30.50;50.80;;;31.09;32.36;95073.16;5050229;28;20203;-83
2021/06/05 11:29:27;;;;;;;3.45;3.13;;;30.60;50.00;;;31.17;32.24;95076.19;5004594;28;20313;-83
2021/06/05 11:32:18;;;;;;;3.45;2.90;;;30.50;49.80;;;31.32;32.06;95074.91;4990303;28;20216;-82